createdAt,value
2018-12-26T00:01:54.974Z,101075.34
2018-12-26T00:04:25.263Z,101080.41
2018-12-26T00:06:56.302Z,101069.50
2018-12-26T00:09:25.345Z,101071.84
2018-12-26T00:11:54.172Z,101066.56
2018-12-26T00:14:23.259Z,101067.48
2018-12-26T00:16:51.944Z,101066.20
2018-12-26T00:19:20.761Z,101069.52
2018-12-26T00:21:49.558Z,101068.45
2018-12-26T00:24:18.256Z,101062.77
2018-12-26T00:26:47.143Z,101063.55
2018-12-26T00:29:15.847Z,101058.92
2018-12-26T00:31:44.677Z,101061.61
2018-12-26T00:34:13.302Z,101064.20
2018-12-26T00:36:42.321Z,101059.39
2018-12-26T00:39:11.327Z,101066.38
2018-12-26T00:41:40.926Z,101065.52
2018-12-26T00:44:09.653Z,101053.06
2018-12-26T00:46:38.425Z,101057.67
2018-12-26T00:49:07.111Z,101050.39
2018-12-26T00:51:35.790Z,101046.25
2018-12-26T00:54:05.382Z,101046.53
2018-12-26T00:56:34.452Z,101042.33
2018-12-26T00:59:03.275Z,101048.25
2018-12-26T01:01:31.964Z,101042.14
2018-12-26T01:04:00.613Z,101043.41
2018-12-26T01:06:29.198Z,101044.47
2018-12-26T01:08:57.946Z,101046.23
2018-12-26T01:11:26.556Z,101049.17
2018-12-26T01:13:55.374Z,101049.42
2018-12-26T01:16:24.213Z,101055.97
2018-12-26T01:18:52.953Z,101053.84
2018-12-26T01:21:21.812Z,101055.73
2018-12-26T01:23:50.864Z,101054.98
2018-12-26T01:26:19.892Z,101056.90
2018-12-26T01:28:48.637Z,101050.00
2018-12-26T01:31:17.271Z,101053.98
2018-12-26T01:33:45.714Z,101055.06
2018-12-26T01:36:14.937Z,101052.25
2018-12-26T01:38:44.704Z,101054.16
2018-12-26T01:41:14.578Z,101049.77
2018-12-26T01:43:43.138Z,101052.70
2018-12-26T01:46:12.072Z,101055.42
2018-12-26T01:48:40.840Z,101045.73
2018-12-26T01:51:10.944Z,101046.71
2018-12-26T01:53:39.652Z,101047.36
2018-12-26T01:56:08.019Z,101042.43
2018-12-26T01:58:36.485Z,100997.45
2018-12-26T02:01:04.927Z,101036.83
2018-12-26T02:03:33.394Z,101039.23
2018-12-26T02:06:01.752Z,101047.22
2018-12-26T02:08:30.159Z,101047.84
2018-12-26T02:10:58.533Z,101047.84
2018-12-26T02:13:26.921Z,101055.13
2018-12-26T02:15:55.283Z,101055.13
2018-12-26T02:18:23.681Z,101049.73
2018-12-26T02:20:53.217Z,101045.19
2018-12-26T02:23:21.618Z,101040.97
2018-12-26T02:25:50.058Z,101044.18
2018-12-26T02:28:18.525Z,101044.18
2018-12-26T02:30:46.892Z,101045.97
2018-12-26T02:33:15.365Z,101038.55
2018-12-26T02:35:43.732Z,101033.84
2018-12-26T02:38:12.121Z,101032.24
2018-12-26T02:40:40.489Z,101033.67
2018-12-26T02:43:08.886Z,101034.42
2018-12-26T02:45:37.250Z,101026.21
2018-12-26T02:48:05.667Z,101018.55
2018-12-26T02:50:34.208Z,101021.58
2018-12-26T02:53:02.574Z,101021.97
2018-12-26T02:55:31.039Z,101014.59
2018-12-26T02:57:59.411Z,101014.59
2018-12-26T03:00:27.832Z,100997.59
2018-12-26T03:02:56.200Z,100997.59
2018-12-26T03:05:24.592Z,100998.28
2018-12-26T03:07:52.965Z,100996.45
2018-12-26T03:10:21.356Z,100994.77
2018-12-26T03:12:49.732Z,100994.77
2018-12-26T03:15:18.134Z,100989.60
2018-12-26T03:17:46.639Z,100982.00
2018-12-26T03:20:15.076Z,100981.91
2018-12-26T03:22:43.515Z,100982.85
2018-12-26T03:25:11.981Z,100982.85
2018-12-26T03:27:40.412Z,100973.15
2018-12-26T03:30:09.480Z,100973.15
2018-12-26T03:32:37.876Z,100968.91
2018-12-26T03:35:06.457Z,100969.77
2018-12-26T03:37:34.888Z,100965.13
2018-12-26T03:40:04.217Z,100961.32
2018-12-26T03:42:32.575Z,100968.05
2018-12-26T03:45:02.216Z,100968.05
2018-12-26T03:47:32.909Z,100982.42
2018-12-26T03:50:03.025Z,100980.70
2018-12-26T03:52:31.531Z,100982.97
2018-12-26T03:55:00.024Z,100982.97
2018-12-26T03:57:28.593Z,100963.75
2018-12-26T03:59:56.987Z,100963.75
2018-12-26T04:02:26.879Z,100957.85
2018-12-26T04:04:56.024Z,100957.85
2018-12-26T04:07:25.231Z,100951.70
2018-12-26T04:09:54.793Z,100953.89
2018-12-26T04:12:23.184Z,100940.07
2018-12-26T04:14:52.927Z,100940.07
2018-12-26T04:17:21.921Z,100935.52
2018-12-26T04:19:50.782Z,100940.47
2018-12-26T04:22:19.977Z,100945.13
2018-12-26T04:24:49.215Z,100941.16
2018-12-26T04:27:17.631Z,100941.16
2018-12-26T04:29:45.999Z,100945.59
2018-12-26T04:32:14.416Z,100945.37
2018-12-26T04:34:43.283Z,100944.52
2018-12-26T04:37:12.046Z,100941.41
2018-12-26T04:39:40.421Z,100938.48
2018-12-26T04:42:08.810Z,100941.49
2018-12-26T04:44:37.180Z,100941.49
2018-12-26T04:47:05.575Z,100947.21
2018-12-26T04:49:33.973Z,100950.21
2018-12-26T04:52:02.381Z,100952.52
2018-12-26T04:54:30.754Z,100952.52
2018-12-26T04:56:59.145Z,100951.83
2018-12-26T04:59:27.503Z,100951.83
2018-12-26T05:01:55.895Z,100949.31
2018-12-26T05:04:24.268Z,100959.35
2018-12-26T05:06:52.679Z,100967.69
2018-12-26T05:09:21.117Z,100970.11
2018-12-26T05:11:49.584Z,100975.95
2018-12-26T05:14:18.012Z,100978.11
2018-12-26T05:16:46.412Z,100994.42
2018-12-26T05:19:15.077Z,100990.80
2018-12-26T05:21:43.518Z,100986.48
2018-12-26T05:24:11.981Z,100986.48
2018-12-26T05:26:40.416Z,100991.83
2018-12-26T05:29:08.823Z,100998.49
2018-12-26T05:31:37.269Z,100995.50
2018-12-26T05:34:05.672Z,100995.50
2018-12-26T05:36:34.272Z,100998.44
2018-12-26T05:39:02.741Z,101007.45
2018-12-26T05:41:31.100Z,101007.02
2018-12-26T05:43:59.503Z,101007.02
2018-12-26T05:46:27.869Z,101008.18
2018-12-26T05:48:56.336Z,101009.23
2018-12-26T05:51:24.711Z,101008.48
2018-12-26T05:53:53.168Z,101008.48
2018-12-26T05:56:21.546Z,101019.12
2018-12-26T05:58:49.966Z,101017.11
2018-12-26T06:01:18.400Z,101017.11
2018-12-26T06:03:46.875Z,101014.55
2018-12-26T06:06:15.223Z,101007.81
2018-12-26T06:08:43.648Z,101005.98
2018-12-26T06:11:12.036Z,101006.73
2018-12-26T06:13:40.395Z,101006.73
2018-12-26T06:16:08.796Z,101019.99
2018-12-26T06:18:37.195Z,101023.53
2018-12-26T06:21:05.573Z,101019.17
2018-12-26T06:23:33.951Z,101032.70
2018-12-26T06:26:02.518Z,101032.70
2018-12-26T06:28:30.852Z,101030.41
2018-12-26T06:30:59.419Z,101033.95
2018-12-26T06:33:27.847Z,101033.95
2018-12-26T06:35:56.246Z,101032.48
2018-12-26T06:38:24.607Z,101032.48
2018-12-26T06:40:53.084Z,101037.27
2018-12-26T06:43:21.443Z,101038.77
2018-12-26T06:45:49.849Z,101039.03
2018-12-26T06:48:18.211Z,101038.00
2018-12-26T06:50:46.602Z,101030.17
2018-12-26T06:53:14.982Z,101030.17
2018-12-26T06:55:43.477Z,101034.27
2018-12-26T06:58:11.894Z,101031.42
2018-12-26T07:00:40.289Z,101045.30
2018-12-26T07:03:08.657Z,101046.79
2018-12-26T07:05:37.063Z,101047.25
2018-12-26T07:08:05.434Z,101048.03
2018-12-26T07:10:33.903Z,101048.54
2018-12-26T07:13:02.275Z,101055.86
2018-12-26T07:15:30.674Z,101054.57
2018-12-26T07:17:59.042Z,101050.25
2018-12-26T07:20:27.586Z,101054.53
2018-12-26T07:22:55.962Z,101059.47
2018-12-26T07:25:24.415Z,101055.70
2018-12-26T07:27:52.811Z,101060.60
2018-12-26T07:30:21.251Z,101060.83
2018-12-26T07:32:49.647Z,101060.83
2018-12-26T07:35:18.024Z,101066.52
2018-12-26T07:37:46.573Z,101071.77
2018-12-26T07:40:16.194Z,101077.56
2018-12-26T07:42:44.816Z,101075.86
2018-12-26T07:45:13.166Z,101078.34
2018-12-26T07:47:41.634Z,101051.17
2018-12-26T07:50:10.000Z,101081.77
2018-12-26T07:52:38.402Z,101081.77
2018-12-26T07:55:06.841Z,101080.39
2018-12-26T07:57:35.247Z,101079.12
2018-12-26T08:00:04.246Z,101084.26
2018-12-26T08:02:32.646Z,101083.48
2018-12-26T08:05:01.012Z,101088.14
2018-12-26T08:07:29.408Z,101085.81
2018-12-26T08:09:57.783Z,101085.15
2018-12-26T08:12:26.184Z,101089.34
2018-12-26T08:14:54.624Z,101097.09
2018-12-26T08:17:23.031Z,101101.56
2018-12-26T08:19:51.484Z,101102.38
2018-12-26T08:22:19.868Z,101102.44
2018-12-26T08:24:48.235Z,101107.00
2018-12-26T08:27:16.628Z,101101.78
2018-12-26T08:29:44.998Z,101100.63
2018-12-26T08:32:13.402Z,101103.98
2018-12-26T08:34:41.778Z,101108.52
2018-12-26T08:37:10.148Z,101097.09
2018-12-26T08:39:38.658Z,101102.55
2018-12-26T08:42:06.981Z,101106.44
2018-12-26T08:44:35.452Z,101107.24
2018-12-26T08:47:03.830Z,101103.47
2018-12-26T08:49:32.213Z,101101.78
2018-12-26T08:52:00.650Z,101105.41
2018-12-26T08:54:29.121Z,101102.96
2018-12-26T08:56:57.489Z,101107.42
2018-12-26T08:59:25.894Z,101110.18
2018-12-26T09:01:54.254Z,101099.08
2018-12-26T09:04:22.733Z,101098.80
2018-12-26T09:06:51.098Z,101105.21
2018-12-26T09:09:19.911Z,101104.94
2018-12-26T09:11:48.275Z,101104.59
2018-12-26T09:14:16.690Z,101108.58
2018-12-26T09:16:45.051Z,101099.86
2018-12-26T09:19:13.452Z,101100.91
2018-12-26T09:21:41.888Z,101102.89
2018-12-26T09:24:10.436Z,101102.18
2018-12-26T09:26:39.079Z,101109.56
2018-12-26T09:29:08.076Z,101107.84
2018-12-26T09:31:36.583Z,101110.70
2018-12-26T09:34:05.279Z,101118.18
2018-12-26T09:36:33.638Z,101111.77
2018-12-26T09:39:02.005Z,101106.27
2018-12-26T09:41:30.505Z,101106.83
2018-12-26T09:43:58.881Z,101101.28
2018-12-26T09:46:27.537Z,101106.12
2018-12-26T09:48:55.904Z,101101.53
2018-12-26T09:51:24.426Z,101094.17
2018-12-26T09:53:52.781Z,101092.42
2018-12-26T09:56:21.275Z,101092.42
2018-12-26T09:58:52.671Z,101094.28
2018-12-26T10:01:19.880Z,101086.11
2018-12-26T10:03:49.989Z,101088.55
2018-12-26T10:06:18.416Z,101083.98
2018-12-26T10:08:46.917Z,101078.23
2018-12-26T10:11:15.394Z,101085.27
2018-12-26T10:13:43.775Z,101087.44
2018-12-26T10:16:12.168Z,101087.72
2018-12-26T10:18:40.531Z,101083.51
2018-12-26T10:21:09.673Z,101090.44
2018-12-26T10:23:39.471Z,101089.08
2018-12-26T10:26:07.931Z,101082.53
2018-12-26T10:28:37.848Z,101080.75
2018-12-26T10:31:06.323Z,101078.23
2018-12-26T10:33:34.789Z,101081.37
2018-12-26T10:36:03.169Z,101074.14
2018-12-26T10:38:31.527Z,101075.24
2018-12-26T10:41:01.602Z,101070.04
2018-12-26T10:43:30.700Z,101064.09
2018-12-26T10:45:59.510Z,101057.05
2018-12-26T10:48:27.875Z,101057.31
2018-12-26T10:50:56.380Z,101048.61
2018-12-26T10:53:24.838Z,101051.05
2018-12-26T10:55:53.282Z,101047.98
2018-12-26T10:58:21.855Z,101045.20
2018-12-26T11:00:50.225Z,101047.71
2018-12-26T11:03:18.631Z,101035.19
2018-12-26T11:05:46.996Z,101030.13
2018-12-26T11:08:15.568Z,101029.03
2018-12-26T11:10:44.014Z,101023.06
2018-12-26T11:13:12.415Z,101020.42
2018-12-26T11:15:40.795Z,101021.04
2018-12-26T11:18:09.313Z,101021.89
2018-12-26T11:20:37.781Z,101022.84
2018-12-26T11:23:06.321Z,101013.41
2018-12-26T11:25:35.169Z,101010.97
2018-12-26T11:28:03.564Z,101009.73
2018-12-26T11:30:32.073Z,101011.83
2018-12-26T11:33:01.481Z,101007.02
2018-12-26T11:35:29.967Z,100997.80
2018-12-26T11:37:58.446Z,100998.99
2018-12-26T11:40:26.876Z,100996.27
2018-12-26T11:42:55.445Z,100994.97
2018-12-26T11:45:23.967Z,100981.57
2018-12-26T11:47:52.414Z,100983.98
2018-12-26T11:50:21.088Z,100980.17
2018-12-26T11:52:49.638Z,100981.21
2018-12-26T11:55:18.074Z,100983.61
2018-12-26T11:57:46.476Z,100980.66
2018-12-26T12:00:14.836Z,100979.03
2018-12-26T12:02:43.310Z,100968.19
2018-12-26T12:05:11.678Z,100964.19
2018-12-26T12:07:40.106Z,100964.09
2018-12-26T12:10:08.820Z,100960.39
2018-12-26T12:12:39.236Z,100961.41
2018-12-26T12:15:07.701Z,100954.55
2018-12-26T12:17:36.135Z,100956.01
2018-12-26T12:20:07.214Z,100954.63
2018-12-26T12:22:35.605Z,100952.30
2018-12-26T12:25:04.423Z,100950.44
2018-12-26T12:27:32.785Z,100947.73
2018-12-26T12:30:01.279Z,100949.75
2018-12-26T12:32:29.742Z,100943.45
2018-12-26T12:34:58.237Z,100946.93
2018-12-26T12:37:26.746Z,100951.67
2018-12-26T12:39:55.581Z,100947.45
2018-12-26T12:42:24.173Z,100950.40
2018-12-26T12:44:52.650Z,100942.46
2018-12-26T12:47:21.286Z,100947.36
2018-12-26T12:49:49.745Z,100948.09
2018-12-26T12:52:18.255Z,100945.30
2018-12-26T12:54:46.720Z,100938.27
2018-12-26T12:57:15.157Z,100943.96
2018-12-26T12:59:44.913Z,100890.58
2018-12-26T13:02:13.590Z,100934.09
2018-12-26T13:04:42.168Z,100947.66
2018-12-26T13:07:10.535Z,100943.73
2018-12-26T13:09:38.940Z,100936.77
2018-12-26T13:12:07.407Z,100938.55
2018-12-26T13:14:36.045Z,100935.63
2018-12-26T13:17:05.349Z,100939.56
2018-12-26T13:19:34.159Z,100939.98
2018-12-26T13:22:03.198Z,100938.59
2018-12-26T13:24:31.979Z,100939.19
2018-12-26T13:27:01.078Z,100936.42
2018-12-26T13:29:29.735Z,100941.67
2018-12-26T13:32:00.080Z,100936.41
2018-12-26T13:34:30.551Z,100942.75
2018-12-26T13:36:59.408Z,100939.92
2018-12-26T13:39:30.326Z,100938.16
2018-12-26T13:42:00.083Z,100942.19
2018-12-26T13:44:29.246Z,100942.71
2018-12-26T13:46:58.609Z,100942.97
2018-12-26T13:49:27.618Z,100944.12
2018-12-26T13:51:58.032Z,100936.69
2018-12-26T13:54:27.103Z,100947.69
2018-12-26T13:56:57.323Z,100907.45
2018-12-26T13:59:26.165Z,100942.09
2018-12-26T14:01:55.957Z,100940.14
2018-12-26T14:04:27.158Z,100940.14
2018-12-26T14:06:55.989Z,100940.32
2018-12-26T14:09:24.944Z,100940.32
2018-12-26T14:11:53.459Z,100946.86
2018-12-26T14:14:24.510Z,100938.06
2018-12-26T14:16:53.198Z,100939.47
2018-12-26T14:19:21.547Z,100945.80
2018-12-26T14:21:50.021Z,100939.83
2018-12-26T14:24:18.402Z,100937.32
2018-12-26T14:26:46.841Z,100932.73
2018-12-26T14:29:15.282Z,100931.88
2018-12-26T14:31:43.678Z,100926.36
2018-12-26T14:34:12.058Z,100930.40
2018-12-26T14:36:40.437Z,100930.40
2018-12-26T14:39:08.898Z,100922.83
2018-12-26T14:41:37.387Z,100927.48
2018-12-26T14:44:05.887Z,100921.14
2018-12-26T14:46:34.538Z,100927.05
2018-12-26T14:49:03.016Z,100922.03
2018-12-26T14:51:31.381Z,100915.20
2018-12-26T14:53:59.788Z,100916.75
2018-12-26T14:56:28.304Z,100914.81
2018-12-26T14:58:58.042Z,100923.45
2018-12-26T15:01:26.564Z,100919.38
2018-12-26T15:03:55.125Z,100913.50
2018-12-26T15:06:23.561Z,100915.55
2018-12-26T15:08:51.965Z,100911.92
2018-12-26T15:11:20.417Z,100914.28
2018-12-26T15:13:48.847Z,100917.78
2018-12-26T15:16:17.206Z,100914.39
2018-12-26T15:18:45.712Z,100921.23
2018-12-26T15:21:14.202Z,100921.23
2018-12-26T15:23:42.598Z,100919.73
2018-12-26T15:26:10.988Z,100919.73
2018-12-26T15:28:39.780Z,100917.91
2018-12-26T15:31:08.150Z,100913.64
2018-12-26T15:33:36.580Z,100910.83
2018-12-26T15:36:05.091Z,100912.81
2018-12-26T15:38:33.490Z,100905.66
2018-12-26T15:41:01.904Z,100908.09
2018-12-26T15:43:30.343Z,100910.67
2018-12-26T15:45:58.758Z,100905.52
2018-12-26T15:48:27.554Z,100899.95
2018-12-26T15:50:56.551Z,100902.69
2018-12-26T15:53:25.052Z,100896.75
2018-12-26T15:55:53.614Z,100903.86
2018-12-26T15:58:22.016Z,100901.26
2018-12-26T16:00:50.630Z,100898.62
2018-12-26T16:03:19.005Z,100901.53
2018-12-26T16:05:47.408Z,100907.75
2018-12-26T16:08:15.777Z,100905.42
2018-12-26T16:10:44.288Z,100905.94
2018-12-26T16:13:13.336Z,100904.41
2018-12-26T16:15:41.853Z,100904.23
2018-12-26T16:18:10.287Z,100905.50
2018-12-26T16:20:38.806Z,100898.84
2018-12-26T16:23:07.208Z,100904.50
2018-12-26T16:25:35.624Z,100898.57
2018-12-26T16:28:03.993Z,100904.92
2018-12-26T16:30:32.392Z,100900.59
2018-12-26T16:33:00.846Z,100897.14
2018-12-26T16:35:29.354Z,100896.17
2018-12-26T16:38:01.604Z,100900.16
2018-12-26T16:40:27.846Z,100898.89
2018-12-26T16:42:56.322Z,100899.77
2018-12-26T16:45:24.776Z,100896.89
2018-12-26T16:47:53.623Z,100901.22
2018-12-26T16:50:27.011Z,100905.03
2018-12-26T16:52:52.526Z,100897.83
2018-12-26T16:55:20.967Z,100906.25
2018-12-26T16:57:49.445Z,100909.39
2018-12-26T17:00:17.897Z,100907.22
2018-12-26T17:02:46.375Z,100907.97
2018-12-26T17:05:14.997Z,100903.41
2018-12-26T17:07:43.414Z,100901.64
2018-12-26T17:10:15.207Z,100900.34
2018-12-26T17:12:43.600Z,100899.36
2018-12-26T17:15:11.977Z,100904.88
2018-12-26T17:17:40.374Z,100897.45
2018-12-26T17:20:09.207Z,100896.12
2018-12-26T17:22:37.600Z,100895.27
2018-12-26T17:25:06.152Z,100893.60
2018-12-26T17:27:34.641Z,100886.33
2018-12-26T17:30:05.391Z,100892.05
2018-12-26T17:32:37.587Z,100887.78
2018-12-26T17:35:27.663Z,100893.18
2018-12-26T17:37:56.796Z,100894.02
2018-12-26T17:40:26.491Z,100893.83
2018-12-26T17:42:56.125Z,100891.74
2018-12-26T17:45:25.415Z,100886.10
2018-12-26T17:47:56.769Z,100883.12
2018-12-26T17:50:49.338Z,100889.47
2018-12-26T17:53:30.588Z,100885.69
2018-12-26T17:56:08.025Z,100885.69
2018-12-26T17:58:48.978Z,100882.27
2018-12-26T18:01:26.696Z,100886.33
2018-12-26T18:03:55.702Z,100884.41
2018-12-26T18:06:24.670Z,100886.68
2018-12-26T18:08:53.824Z,100893.69
2018-12-26T18:11:22.258Z,100880.85
2018-12-26T18:13:51.233Z,100878.11
2018-12-26T18:16:20.301Z,100880.67
2018-12-26T18:18:48.854Z,100878.60
2018-12-26T18:21:17.290Z,100873.00
2018-12-26T18:23:45.707Z,100880.67
2018-12-26T18:26:14.127Z,100879.34
2018-12-26T18:28:44.307Z,100881.12
2018-12-26T18:31:21.860Z,100878.66
2018-12-26T18:33:44.441Z,100884.63
2018-12-26T18:36:13.265Z,100881.51
2018-12-26T18:38:42.326Z,100882.41
2018-12-26T18:41:11.008Z,100878.97
2018-12-26T18:43:41.227Z,100881.03
2018-12-26T18:46:09.934Z,100872.67
2018-12-26T18:48:39.330Z,100873.73
2018-12-26T18:51:08.723Z,100871.16
2018-12-26T18:53:37.423Z,100875.83
2018-12-26T18:56:08.074Z,100869.75
2018-12-26T18:58:37.829Z,100869.75
2018-12-26T19:01:06.711Z,100869.62
2018-12-26T19:03:36.926Z,100871.20
2018-12-26T19:06:05.403Z,100873.41
2018-12-26T19:08:34.349Z,100861.77
2018-12-26T19:11:02.749Z,100861.77
2018-12-26T19:13:31.497Z,100866.11
2018-12-26T19:15:59.973Z,100871.20
2018-12-26T19:18:28.471Z,100866.11
2018-12-26T19:20:56.874Z,100867.70
2018-12-26T19:23:25.250Z,100867.70
2018-12-26T19:25:53.751Z,100868.19
2018-12-26T19:28:22.114Z,100867.05
2018-12-26T19:30:51.299Z,100869.65
2018-12-26T19:33:19.662Z,100878.77
2018-12-26T19:35:48.078Z,100883.61
2018-12-26T19:38:16.703Z,100881.37
2018-12-26T19:40:45.168Z,100879.21
2018-12-26T19:43:13.742Z,100875.55
2018-12-26T19:45:42.262Z,100880.26
2018-12-26T19:48:10.632Z,100854.48
2018-12-26T19:50:39.029Z,100864.45
2018-12-26T19:53:07.411Z,100859.80
2018-12-26T19:55:35.854Z,100859.80
2018-12-26T19:58:04.401Z,100851.95
2018-12-26T20:00:32.790Z,100854.66
2018-12-26T20:03:02.612Z,100846.93
2018-12-26T20:05:32.424Z,100841.87
2018-12-26T20:08:00.856Z,100841.02
2018-12-26T20:10:29.235Z,100842.45
2018-12-26T20:12:57.694Z,100845.64
2018-12-26T20:15:26.218Z,100841.58
2018-12-26T20:17:55.781Z,100841.58
2018-12-26T20:20:24.599Z,100846.21
2018-12-26T20:22:53.510Z,100846.69
2018-12-26T20:25:21.971Z,100839.86
2018-12-26T20:27:50.384Z,100844.55
2018-12-26T20:30:18.742Z,100839.19
2018-12-26T20:32:47.223Z,100832.12
2018-12-26T20:35:15.823Z,100832.14
2018-12-26T20:37:44.784Z,100834.88
2018-12-26T20:40:13.716Z,100829.38
2018-12-26T20:42:42.197Z,100827.37
2018-12-26T20:45:13.252Z,100825.98
2018-12-26T20:47:41.665Z,100826.73
2018-12-26T20:50:10.111Z,100825.73
2018-12-26T20:52:38.595Z,100824.32
2018-12-26T20:55:07.031Z,100814.69
2018-12-26T20:57:35.439Z,100824.53
2018-12-26T21:00:06.101Z,100819.73
2018-12-26T21:02:34.513Z,100819.38
2018-12-26T21:05:03.017Z,100819.38
2018-12-26T21:07:31.385Z,100821.75
2018-12-26T21:09:59.788Z,100821.00
2018-12-26T21:12:28.218Z,100820.20
2018-12-26T21:14:56.747Z,100810.72
2018-12-26T21:17:25.183Z,100809.52
2018-12-26T21:19:55.027Z,100813.13
2018-12-26T21:22:23.477Z,100812.00
2018-12-26T21:24:52.987Z,100801.00
2018-12-26T21:27:21.438Z,100803.75
2018-12-26T21:29:50.483Z,100793.82
2018-12-26T21:32:18.984Z,100794.66
2018-12-26T21:34:47.524Z,100785.30
2018-12-26T21:37:15.980Z,100782.28
2018-12-26T21:39:44.376Z,100786.80
2018-12-26T21:42:12.742Z,100780.72
2018-12-26T21:44:41.138Z,100735.05
2018-12-26T21:47:09.565Z,100778.47
2018-12-26T21:49:39.029Z,100777.58
2018-12-26T21:52:08.197Z,100781.72
2018-12-26T21:54:37.690Z,100773.89
2018-12-26T21:57:08.304Z,100772.77
2018-12-26T21:59:37.469Z,100767.34
2018-12-26T22:02:06.184Z,100760.09
2018-12-26T22:04:34.577Z,100758.39
2018-12-26T22:07:02.955Z,100752.40
2018-12-26T22:09:32.065Z,100744.75
2018-12-26T22:12:01.003Z,100746.12
2018-12-26T22:14:29.674Z,100739.16
2018-12-26T22:16:59.232Z,100744.38
2018-12-26T22:19:27.688Z,100743.50
2018-12-26T22:21:56.425Z,100740.83
2018-12-26T22:24:25.399Z,100746.16
2018-12-26T22:26:53.839Z,100746.33
2018-12-26T22:29:25.149Z,100741.19
2018-12-26T22:31:53.951Z,100742.37
2018-12-26T22:34:24.481Z,100744.10
2018-12-26T22:36:53.293Z,100746.63
2018-12-26T22:39:22.069Z,100743.13
2018-12-26T22:41:50.809Z,100743.17
2018-12-26T22:44:27.552Z,100735.94
2018-12-26T22:46:52.494Z,100740.66
2018-12-26T22:49:21.833Z,100736.13
2018-12-26T22:51:50.414Z,100731.76
2018-12-26T22:54:18.785Z,100732.52
2018-12-26T22:56:47.584Z,100725.69
2018-12-26T22:59:16.738Z,100720.55
2018-12-26T23:01:45.887Z,100719.23
2018-12-26T23:04:15.227Z,100715.42
2018-12-26T23:06:44.271Z,100717.80
2018-12-26T23:09:12.748Z,100710.34
2018-12-26T23:11:41.608Z,100710.34
2018-12-26T23:14:11.861Z,100710.38
2018-12-26T23:16:43.311Z,100708.91
2018-12-26T23:19:12.431Z,100696.75
2018-12-26T23:21:42.978Z,100700.22
2018-12-26T23:24:12.172Z,100704.33
2018-12-26T23:26:41.020Z,100705.23
2018-12-26T23:29:10.086Z,100705.13
2018-12-26T23:31:38.604Z,100699.71
2018-12-26T23:34:08.018Z,100690.94
2018-12-26T23:36:39.837Z,100699.48
2018-12-26T23:39:08.538Z,100697.36
2018-12-26T23:41:37.159Z,100695.30
2018-12-26T23:44:05.765Z,100697.11
2018-12-26T23:46:38.622Z,100685.00
2018-12-26T23:49:07.447Z,100680.48
2018-12-26T23:51:36.462Z,100680.23
2018-12-26T23:54:05.376Z,100678.08
2018-12-26T23:56:34.118Z,100681.01
2018-12-26T23:59:02.714Z,100676.23
